createdAt,value
2018-08-11T00:01:34.531Z,22.66
2018-08-11T00:04:00.840Z,22.67
2018-08-11T00:06:27.154Z,22.74
2018-08-11T00:08:53.465Z,22.73
2018-08-11T00:11:19.785Z,22.66
2018-08-11T00:13:46.091Z,22.64
2018-08-11T00:16:12.406Z,22.60
2018-08-11T00:18:38.717Z,22.44
2018-08-11T00:21:05.022Z,22.33
2018-08-11T00:23:31.332Z,22.24
2018-08-11T00:25:57.638Z,22.22
2018-08-11T00:28:23.947Z,22.34
2018-08-11T00:30:50.255Z,22.41
2018-08-11T00:33:16.575Z,22.43
2018-08-11T00:35:42.879Z,22.43
2018-08-11T00:38:09.185Z,22.42
2018-08-11T00:40:35.509Z,22.44
2018-08-11T00:43:01.820Z,22.46
2018-08-11T00:45:28.130Z,22.39
2018-08-11T00:47:54.436Z,22.33
2018-08-11T00:50:20.787Z,22.19
2018-08-11T00:52:47.096Z,22.21
2018-08-11T00:55:13.406Z,22.25
2018-08-11T00:57:39.715Z,22.27
2018-08-11T01:00:06.065Z,22.26
2018-08-11T01:02:32.378Z,22.26
2018-08-11T01:04:58.692Z,22.14
2018-08-11T01:07:25.001Z,22.13
2018-08-11T01:09:51.308Z,22.12
2018-08-11T01:12:17.618Z,22.12
2018-08-11T01:14:43.935Z,22.15
2018-08-11T01:17:10.249Z,22.15
2018-08-11T01:19:36.558Z,22.15
2018-08-11T01:22:02.885Z,22.10
2018-08-11T01:24:29.193Z,22.12
2018-08-11T01:26:55.510Z,22.10
2018-08-11T01:29:21.822Z,22.08
2018-08-11T01:31:48.178Z,22.03
2018-08-11T01:34:14.482Z,21.96
2018-08-11T01:36:40.791Z,21.92
2018-08-11T01:39:07.096Z,21.90
2018-08-11T01:41:33.408Z,21.87
2018-08-11T01:43:59.743Z,21.89
2018-08-11T01:46:26.032Z,21.90
2018-08-11T01:48:52.339Z,21.91
2018-08-11T01:51:18.651Z,21.94
2018-08-11T01:53:44.980Z,21.91
2018-08-11T01:56:11.288Z,21.82
2018-08-11T01:58:37.600Z,21.78
2018-08-11T02:01:03.912Z,21.78
2018-08-11T02:03:30.229Z,21.76
2018-08-11T02:05:56.536Z,21.69
2018-08-11T02:08:22.840Z,21.67
2018-08-11T02:10:49.152Z,21.69
2018-08-11T02:13:15.459Z,21.71
2018-08-11T02:15:41.779Z,21.65
2018-08-11T02:18:08.085Z,21.61
2018-08-11T02:20:34.390Z,21.58
2018-08-11T02:23:00.707Z,21.51
2018-08-11T02:25:27.023Z,21.52
2018-08-11T02:27:53.335Z,21.53
2018-08-11T02:30:19.648Z,21.52
2018-08-11T02:32:45.962Z,21.38
2018-08-11T02:35:12.273Z,21.39
2018-08-11T02:37:38.583Z,21.35
2018-08-11T02:40:04.896Z,21.39
2018-08-11T02:42:31.205Z,21.36
2018-08-11T02:44:57.511Z,21.37
2018-08-11T02:47:23.822Z,21.32
2018-08-11T02:49:50.127Z,21.34
2018-08-11T02:52:16.440Z,21.32
2018-08-11T02:54:42.752Z,21.33
2018-08-11T02:57:09.071Z,21.35
2018-08-11T02:59:35.371Z,21.35
2018-08-11T03:02:01.724Z,21.36
2018-08-11T03:04:28.036Z,21.32
2018-08-11T03:06:54.351Z,21.35
2018-08-11T03:09:20.665Z,21.36
2018-08-11T03:11:47.021Z,21.31
2018-08-11T03:14:13.345Z,21.31
2018-08-11T03:16:39.657Z,21.29
2018-08-11T03:19:05.964Z,21.19
2018-08-11T03:21:32.271Z,21.16
2018-08-11T03:23:58.587Z,21.14
2018-08-11T03:26:24.898Z,21.19
2018-08-11T03:28:51.207Z,21.18
2018-08-11T03:31:17.516Z,21.15
2018-08-11T03:33:43.824Z,21.15
2018-08-11T03:36:10.136Z,21.08
2018-08-11T03:38:36.449Z,21.05
2018-08-11T03:41:02.796Z,21.06
2018-08-11T03:43:29.109Z,21.12
2018-08-11T03:45:55.468Z,21.10
2018-08-11T03:48:21.725Z,21.02
2018-08-11T03:50:48.035Z,20.95
2018-08-11T03:53:14.345Z,20.79
2018-08-11T03:55:40.665Z,20.74
2018-08-11T03:58:06.983Z,20.82
2018-08-11T04:00:33.299Z,20.88
2018-08-11T04:02:59.622Z,20.94
2018-08-11T04:05:25.934Z,20.99
2018-08-11T04:07:52.246Z,21.02
2018-08-11T04:10:18.546Z,21.03
2018-08-11T04:12:44.862Z,21.00
2018-08-11T04:15:11.232Z,21.00
2018-08-11T04:17:37.539Z,20.89
2018-08-11T04:20:03.846Z,20.97
2018-08-11T04:22:30.151Z,21.01
2018-08-11T04:24:56.479Z,21.03
2018-08-11T04:27:22.794Z,21.02
2018-08-11T04:29:49.110Z,20.86
2018-08-11T04:32:15.415Z,20.86
2018-08-11T04:34:41.739Z,20.86
2018-08-11T04:37:08.055Z,20.92
2018-08-11T04:39:34.370Z,20.99
2018-08-11T04:42:00.695Z,21.03
2018-08-11T04:44:27.002Z,21.07
2018-08-11T04:46:53.298Z,21.01
2018-08-11T04:49:19.612Z,20.58
2018-08-11T04:51:45.919Z,20.39
2018-08-11T04:54:12.224Z,20.19
2018-08-11T04:56:38.538Z,20.47
2018-08-11T04:59:04.852Z,20.68
2018-08-11T05:01:31.159Z,20.86
2018-08-11T05:03:57.468Z,20.97
2018-08-11T05:06:23.781Z,21.05
2018-08-11T05:08:50.090Z,21.17
2018-08-11T05:11:16.395Z,21.25
2018-08-11T05:13:42.742Z,21.32
2018-08-11T05:16:09.065Z,21.38
2018-08-11T05:18:35.378Z,21.48
2018-08-11T05:21:01.715Z,21.55
2018-08-11T05:23:28.037Z,21.60
2018-08-11T05:25:54.358Z,21.64
2018-08-11T05:28:20.663Z,21.76
2018-08-11T05:30:47.018Z,21.86
2018-08-11T05:33:13.382Z,21.93
2018-08-11T05:35:39.635Z,22.03
2018-08-11T05:38:05.977Z,22.12
2018-08-11T05:40:32.294Z,22.16
2018-08-11T05:42:58.604Z,22.23
2018-08-11T05:45:24.914Z,22.34
2018-08-11T05:47:51.255Z,22.41
2018-08-11T05:50:17.599Z,22.46
2018-08-11T05:52:43.952Z,22.54
2018-08-11T05:55:10.318Z,22.57
2018-08-11T05:57:36.577Z,22.55
2018-08-11T06:00:02.879Z,22.58
2018-08-11T06:02:29.188Z,22.64
2018-08-11T06:04:55.510Z,22.65
2018-08-11T06:07:21.826Z,22.69
2018-08-11T06:09:48.141Z,22.76
2018-08-11T06:12:14.457Z,22.86
2018-08-11T06:14:40.768Z,22.91
2018-08-11T06:17:07.083Z,22.99
2018-08-11T06:19:33.392Z,23.05
2018-08-11T06:21:59.706Z,23.09
2018-08-11T06:24:26.030Z,23.21
2018-08-11T06:26:52.342Z,23.34
2018-08-11T06:29:18.646Z,23.53
2018-08-11T06:31:44.999Z,23.79
2018-08-11T06:34:11.278Z,24.26
2018-08-11T06:36:37.592Z,24.48
2018-08-11T06:39:03.905Z,24.29
2018-08-11T06:41:30.211Z,24.25
2018-08-11T06:43:56.521Z,24.45
2018-08-11T06:46:22.828Z,24.62
2018-08-11T06:48:49.135Z,24.57
2018-08-11T06:51:15.445Z,24.40
2018-08-11T06:53:41.755Z,24.40
2018-08-11T06:56:08.064Z,24.33
2018-08-11T06:58:34.376Z,24.61
2018-08-11T07:01:00.691Z,24.84
2018-08-11T07:03:26.996Z,24.91
2018-08-11T07:05:53.310Z,24.99
2018-08-11T07:08:19.658Z,25.10
2018-08-11T07:10:45.964Z,25.27
2018-08-11T07:13:12.310Z,25.42
2018-08-11T07:15:38.621Z,25.33
2018-08-11T07:18:04.929Z,25.47
2018-08-11T07:20:31.235Z,25.36
2018-08-11T07:22:57.542Z,25.23
2018-08-11T07:25:23.850Z,25.20
2018-08-11T07:27:50.166Z,25.22
2018-08-11T07:30:16.546Z,25.38
2018-08-11T07:32:42.800Z,25.29
2018-08-11T07:35:09.101Z,25.54
2018-08-11T07:37:35.421Z,25.38
2018-08-11T07:40:01.749Z,25.44
2018-08-11T07:42:28.045Z,25.65
2018-08-11T07:44:54.370Z,25.79
2018-08-11T07:47:20.682Z,26.09
2018-08-11T07:49:46.999Z,26.25
2018-08-11T07:52:13.312Z,26.44
2018-08-11T07:54:39.704Z,26.58
2018-08-11T07:57:05.985Z,26.73
2018-08-11T07:59:32.331Z,26.85
2018-08-11T08:01:58.645Z,26.92
2018-08-11T08:04:24.962Z,27.02
2018-08-11T08:06:51.273Z,27.11
2018-08-11T08:09:17.589Z,27.15
2018-08-11T08:11:43.894Z,27.16
2018-08-11T08:14:10.206Z,27.27
2018-08-11T08:16:36.517Z,27.35
2018-08-11T08:19:02.830Z,27.37
2018-08-11T08:21:29.189Z,27.50
2018-08-11T08:23:55.498Z,27.59
2018-08-11T08:26:21.918Z,27.55
2018-08-11T08:28:48.112Z,27.58
2018-08-11T08:31:14.422Z,27.68
2018-08-11T08:33:40.802Z,27.87
2018-08-11T08:36:07.066Z,27.94
2018-08-11T08:38:33.370Z,27.99
2018-08-11T08:40:59.686Z,28.06
2018-08-11T08:43:25.994Z,28.17
2018-08-11T08:45:52.316Z,28.23
2018-08-11T08:48:18.624Z,28.28
2018-08-11T08:50:44.937Z,28.34
2018-08-11T08:53:11.260Z,28.39
2018-08-11T08:55:37.571Z,28.49
2018-08-11T08:58:03.886Z,28.53
2018-08-11T09:00:30.210Z,28.49
2018-08-11T09:02:56.523Z,28.55
2018-08-11T09:05:22.877Z,28.67
2018-08-11T09:07:49.163Z,28.78
2018-08-11T09:10:15.479Z,28.79
2018-08-11T09:12:41.795Z,28.85
2018-08-11T09:15:08.110Z,28.89
2018-08-11T09:17:34.422Z,28.90
2018-08-11T09:20:00.732Z,28.95
2018-08-11T09:22:27.085Z,29.02
2018-08-11T09:24:53.402Z,29.10
2018-08-11T09:27:19.712Z,29.16
2018-08-11T09:29:46.023Z,29.18
2018-08-11T09:32:12.333Z,29.30
2018-08-11T09:34:38.668Z,29.28
2018-08-11T09:37:04.969Z,29.41
2018-08-11T09:39:31.279Z,29.50
2018-08-11T09:41:57.628Z,29.56
2018-08-11T09:44:23.949Z,29.62
2018-08-11T09:46:50.254Z,29.63
2018-08-11T09:49:16.601Z,29.69
2018-08-11T09:51:42.914Z,29.77
2018-08-11T09:54:09.225Z,29.84
2018-08-11T09:56:35.534Z,29.88
2018-08-11T09:59:01.846Z,29.94
2018-08-11T10:01:28.153Z,29.99
2018-08-11T10:03:54.458Z,29.98
2018-08-11T10:06:20.807Z,29.97
2018-08-11T10:08:47.115Z,29.95
2018-08-11T10:11:13.431Z,30.02
2018-08-11T10:13:39.740Z,30.12
2018-08-11T10:16:06.068Z,30.12
2018-08-11T10:18:32.447Z,30.00
2018-08-11T10:20:58.722Z,29.97
2018-08-11T10:23:24.995Z,30.11
2018-08-11T10:25:51.315Z,30.16
2018-08-11T10:28:17.619Z,30.18
2018-08-11T10:30:43.939Z,30.23
2018-08-11T10:33:10.244Z,30.30
2018-08-11T10:35:36.556Z,30.40
2018-08-11T10:38:02.908Z,30.34
2018-08-11T10:40:29.216Z,30.31
2018-08-11T10:42:55.527Z,30.40
2018-08-11T10:45:21.836Z,30.43
2018-08-11T10:47:48.156Z,30.41
2018-08-11T10:50:14.464Z,30.32
2018-08-11T10:52:40.763Z,30.34
2018-08-11T10:55:07.071Z,30.39
2018-08-11T10:57:33.375Z,30.51
2018-08-11T10:59:59.725Z,30.64
2018-08-11T11:02:26.039Z,30.59
2018-08-11T11:04:52.389Z,30.50
2018-08-11T11:07:18.700Z,30.46
2018-08-11T11:09:45.011Z,30.43
2018-08-11T11:12:11.320Z,30.46
2018-08-11T11:14:37.628Z,30.54
2018-08-11T11:17:03.934Z,30.64
2018-08-11T11:19:30.248Z,30.65
2018-08-11T11:21:56.556Z,30.60
2018-08-11T11:24:22.866Z,30.60
2018-08-11T11:26:49.180Z,30.64
2018-08-11T11:29:15.489Z,30.64
2018-08-11T11:31:41.799Z,30.57
2018-08-11T11:34:08.110Z,30.51
2018-08-11T11:36:34.418Z,30.43
2018-08-11T11:39:00.730Z,30.42
2018-08-11T11:41:27.039Z,30.37
2018-08-11T11:43:53.347Z,30.37
2018-08-11T11:46:19.701Z,30.36
2018-08-11T11:48:46.031Z,30.38
2018-08-11T11:51:12.341Z,30.43
2018-08-11T11:53:38.661Z,30.41
2018-08-11T11:56:04.967Z,30.36
2018-08-11T11:58:31.283Z,30.34
2018-08-11T12:00:57.591Z,30.33
2018-08-11T12:03:23.908Z,30.39
2018-08-11T12:05:50.322Z,30.42
2018-08-11T12:08:16.579Z,30.37
2018-08-11T12:10:42.894Z,30.33
2018-08-11T12:13:09.204Z,30.26
2018-08-11T12:15:35.520Z,30.24
2018-08-11T12:18:01.844Z,30.23
2018-08-11T12:20:28.151Z,30.20
2018-08-11T12:22:54.454Z,30.16
2018-08-11T12:25:20.762Z,30.20
2018-08-11T12:27:47.073Z,30.18
2018-08-11T12:30:13.383Z,30.15
2018-08-11T12:32:39.694Z,30.09
2018-08-11T12:35:06.038Z,30.05
2018-08-11T12:37:32.347Z,29.98
2018-08-11T12:39:58.696Z,29.92
2018-08-11T12:42:25.009Z,29.91
2018-08-11T12:44:51.458Z,29.84
2018-08-11T12:47:17.771Z,29.77
2018-08-11T12:49:44.081Z,29.70
2018-08-11T12:52:10.434Z,29.63
2018-08-11T12:54:36.751Z,29.62
2018-08-11T12:57:03.070Z,29.65
2018-08-11T12:59:29.379Z,29.68
2018-08-11T13:01:55.693Z,29.70
2018-08-11T13:04:22.040Z,29.64
2018-08-11T13:06:48.390Z,29.60
2018-08-11T13:09:14.673Z,29.57
2018-08-11T13:11:41.026Z,29.54
2018-08-11T13:14:07.297Z,29.52
2018-08-11T13:16:33.662Z,29.47
2018-08-11T13:18:59.973Z,29.45
2018-08-11T13:21:26.283Z,29.47
2018-08-11T13:23:52.597Z,29.47
2018-08-11T13:26:18.910Z,29.40
2018-08-11T13:28:45.219Z,29.36
2018-08-11T13:31:11.528Z,29.40
2018-08-11T13:33:39.211Z,29.42
2018-08-11T13:36:04.171Z,29.45
2018-08-11T13:38:30.514Z,29.41
2018-08-11T13:40:56.791Z,29.42
2018-08-11T13:43:23.122Z,29.35
2018-08-11T13:45:49.433Z,29.30
2018-08-11T13:48:15.748Z,29.29
2018-08-11T13:50:42.062Z,29.29
2018-08-11T13:53:08.367Z,29.19
2018-08-11T13:55:34.674Z,29.20
2018-08-11T13:58:00.979Z,29.22
2018-08-11T14:00:27.287Z,29.22
2018-08-11T14:02:53.604Z,29.19
2018-08-11T14:05:19.912Z,29.16
2018-08-11T14:07:46.224Z,29.17
2018-08-11T14:10:12.570Z,29.22
2018-08-11T14:12:38.918Z,29.16
2018-08-11T14:15:05.249Z,29.17
2018-08-11T14:17:31.543Z,29.21
2018-08-11T14:19:57.852Z,29.23
2018-08-11T14:22:24.171Z,29.31
2018-08-11T14:24:50.480Z,29.40
2018-08-11T14:27:16.787Z,29.36
2018-08-11T14:29:43.096Z,29.33
2018-08-11T14:32:09.412Z,29.30
2018-08-11T14:34:35.756Z,29.29
2018-08-11T14:37:02.037Z,29.28
2018-08-11T14:39:28.344Z,29.25
2018-08-11T14:41:54.656Z,29.25
2018-08-11T14:44:20.970Z,29.21
2018-08-11T14:46:47.274Z,29.20
2018-08-11T14:49:13.580Z,29.20
2018-08-11T14:51:39.892Z,29.17
2018-08-11T14:54:06.203Z,29.20
2018-08-11T14:56:32.508Z,29.17
2018-08-11T14:58:58.820Z,29.18
2018-08-11T15:01:25.135Z,29.23
2018-08-11T15:03:51.439Z,29.23
2018-08-11T15:06:17.750Z,29.13
2018-08-11T15:08:44.070Z,29.17
2018-08-11T15:11:10.378Z,29.20
2018-08-11T15:13:36.692Z,29.20
2018-08-11T15:16:03.128Z,29.07
2018-08-11T15:18:29.317Z,29.06
2018-08-11T15:20:55.622Z,29.00
2018-08-11T15:23:21.943Z,28.95
2018-08-11T15:25:48.265Z,28.95
2018-08-11T15:28:14.606Z,28.98
2018-08-11T15:30:40.893Z,29.03
2018-08-11T15:33:07.209Z,29.03
2018-08-11T15:35:33.576Z,28.97
2018-08-11T15:37:59.908Z,29.03
2018-08-11T15:40:26.211Z,29.05
2018-08-11T15:42:52.521Z,29.03
2018-08-11T15:45:18.829Z,29.06
2018-08-11T15:47:45.140Z,29.07
2018-08-11T15:50:11.461Z,29.01
2018-08-11T15:52:37.769Z,28.97
2018-08-11T15:55:04.099Z,28.88
2018-08-11T15:57:30.410Z,28.87
2018-08-11T15:59:56.719Z,28.91
2018-08-11T16:02:23.028Z,28.95
2018-08-11T16:04:49.337Z,28.97
2018-08-11T16:07:15.648Z,28.94
2018-08-11T16:09:41.998Z,28.89
2018-08-11T16:12:08.347Z,28.82
2018-08-11T16:14:34.651Z,28.80
2018-08-11T16:17:00.968Z,28.76
2018-08-11T16:19:27.314Z,28.72
2018-08-11T16:21:53.631Z,28.70
2018-08-11T16:24:19.939Z,28.73
2018-08-11T16:26:46.246Z,28.71
2018-08-11T16:29:12.588Z,28.75
2018-08-11T16:31:38.862Z,28.59
2018-08-11T16:34:05.171Z,28.56
2018-08-11T16:36:31.479Z,28.57
2018-08-11T16:38:57.783Z,28.57
2018-08-11T16:41:24.092Z,28.55
2018-08-11T16:43:50.403Z,28.56
2018-08-11T16:46:16.712Z,28.45
2018-08-11T16:48:43.015Z,28.34
2018-08-11T16:51:09.328Z,28.31
2018-08-11T16:53:35.640Z,28.30
2018-08-11T16:56:01.951Z,28.31
2018-08-11T16:58:28.258Z,28.29
2018-08-11T17:00:54.585Z,28.21
2018-08-11T17:03:20.873Z,28.11
2018-08-11T17:05:47.213Z,28.04
2018-08-11T17:08:13.488Z,27.96
2018-08-11T17:10:39.799Z,27.88
2018-08-11T17:13:06.148Z,27.81
2018-08-11T17:15:32.460Z,27.79
2018-08-11T17:17:58.820Z,27.81
2018-08-11T17:20:25.128Z,27.76
2018-08-11T17:22:51.444Z,27.68
2018-08-11T17:25:17.751Z,27.58
2018-08-11T17:27:44.060Z,27.52
2018-08-11T17:30:10.367Z,27.48
2018-08-11T17:32:36.724Z,27.45
2018-08-11T17:35:02.979Z,27.40
2018-08-11T17:37:29.292Z,27.36
2018-08-11T17:39:55.599Z,27.33
2018-08-11T17:42:21.906Z,27.28
2018-08-11T17:44:48.215Z,27.16
2018-08-11T17:47:14.523Z,27.05
2018-08-11T17:49:40.834Z,26.94
2018-08-11T17:52:07.139Z,26.83
2018-08-11T17:54:33.454Z,26.71
2018-08-11T17:56:59.769Z,26.72
2018-08-11T17:59:26.076Z,26.71
2018-08-11T18:01:52.401Z,26.69
2018-08-11T18:04:18.712Z,26.72
2018-08-11T18:06:45.038Z,26.69
2018-08-11T18:09:11.378Z,26.67
2018-08-11T18:11:37.702Z,26.65
2018-08-11T18:14:04.026Z,26.66
2018-08-11T18:16:30.364Z,26.67
2018-08-11T18:18:56.692Z,26.65
2018-08-11T18:21:23.013Z,26.64
2018-08-11T18:23:49.339Z,26.60
2018-08-11T18:26:15.662Z,26.52
2018-08-11T18:28:41.976Z,26.38
2018-08-11T18:31:08.302Z,26.27
2018-08-11T18:33:34.622Z,26.11
2018-08-11T18:36:00.935Z,26.16
2018-08-11T18:38:27.285Z,26.21
2018-08-11T18:40:53.638Z,26.20
2018-08-11T18:43:19.969Z,26.24
2018-08-11T18:45:46.251Z,26.21
2018-08-11T18:48:12.554Z,26.17
2018-08-11T18:50:38.922Z,26.15
2018-08-11T18:53:05.228Z,26.14
2018-08-11T18:55:31.556Z,26.11
2018-08-11T18:57:57.863Z,26.11
2018-08-11T19:00:24.187Z,26.15
2018-08-11T19:02:50.500Z,26.07
2018-08-11T19:05:17.053Z,25.98
2018-08-11T19:07:43.377Z,25.93
2018-08-11T19:10:09.686Z,26.00
2018-08-11T19:12:35.994Z,25.95
2018-08-11T19:15:02.360Z,25.89
2018-08-11T19:17:28.667Z,25.88
2018-08-11T19:19:55.028Z,25.82
2018-08-11T19:22:21.350Z,25.78
2018-08-11T19:24:47.713Z,25.79
2018-08-11T19:27:14.027Z,25.68
2018-08-11T19:29:40.354Z,25.65
2018-08-11T19:32:06.671Z,25.65
2018-08-11T19:34:32.999Z,25.65
2018-08-11T19:36:59.333Z,25.58
2018-08-11T19:39:25.636Z,25.56
2018-08-11T19:41:51.946Z,25.44
2018-08-11T19:44:18.280Z,25.35
2018-08-11T19:46:44.613Z,25.38
2018-08-11T19:49:10.942Z,25.33
2018-08-11T19:51:37.246Z,25.36
2018-08-11T19:54:03.555Z,25.34
2018-08-11T19:56:29.878Z,25.31
2018-08-11T19:58:56.188Z,25.28
2018-08-11T20:01:22.498Z,25.22
2018-08-11T20:03:48.817Z,25.11
2018-08-11T20:06:15.135Z,25.06
2018-08-11T20:08:41.462Z,25.03
2018-08-11T20:11:07.774Z,25.02
2018-08-11T20:13:34.097Z,24.88
2018-08-11T20:16:00.425Z,24.81
2018-08-11T20:18:26.757Z,24.84
2018-08-11T20:20:53.089Z,24.88
2018-08-11T20:23:19.387Z,24.86
2018-08-11T20:25:45.710Z,24.86
2018-08-11T20:28:12.023Z,24.80
2018-08-11T20:30:38.345Z,24.78
2018-08-11T20:33:04.659Z,24.74
2018-08-11T20:35:30.991Z,24.73
2018-08-11T20:37:57.309Z,24.72
2018-08-11T20:40:23.634Z,24.68
2018-08-11T20:42:49.954Z,24.62
2018-08-11T20:45:16.282Z,24.65
2018-08-11T20:47:42.590Z,24.64
2018-08-11T20:50:08.904Z,24.61
2018-08-11T20:52:35.231Z,24.46
2018-08-11T20:55:01.566Z,24.41
2018-08-11T20:57:27.926Z,24.44
2018-08-11T20:59:54.248Z,24.39
2018-08-11T21:02:20.568Z,24.39
2018-08-11T21:04:46.876Z,24.35
2018-08-11T21:07:13.206Z,24.33
2018-08-11T21:09:39.535Z,24.34
2018-08-11T21:12:05.839Z,24.33
2018-08-11T21:14:32.156Z,24.29
2018-08-11T21:16:58.465Z,24.26
2018-08-11T21:19:24.775Z,24.23
2018-08-11T21:21:51.084Z,24.18
2018-08-11T21:24:17.436Z,24.21
2018-08-11T21:26:43.743Z,24.24
2018-08-11T21:29:10.098Z,24.23
2018-08-11T21:31:36.403Z,24.22
2018-08-11T21:34:02.712Z,24.16
2018-08-11T21:36:29.050Z,24.05
2018-08-11T21:38:55.363Z,24.03
2018-08-11T21:41:21.676Z,24.00
2018-08-11T21:43:48.031Z,23.96
2018-08-11T21:46:14.379Z,24.00
2018-08-11T21:48:40.693Z,23.96
2018-08-11T21:51:07.006Z,23.92
2018-08-11T21:53:33.317Z,23.87
2018-08-11T21:55:59.628Z,23.86
2018-08-11T21:58:25.935Z,23.79
2018-08-11T22:00:52.248Z,23.73
2018-08-11T22:03:18.556Z,23.69
2018-08-11T22:05:44.867Z,23.68
2018-08-11T22:08:11.177Z,23.68
2018-08-11T22:10:37.495Z,23.68
2018-08-11T22:13:03.809Z,23.72
2018-08-11T22:15:30.115Z,23.76
2018-08-11T22:17:56.428Z,23.81
2018-08-11T22:20:22.738Z,23.84
2018-08-11T22:22:49.083Z,23.81
2018-08-11T22:25:15.400Z,23.85
2018-08-11T22:27:41.718Z,23.80
2018-08-11T22:30:08.034Z,23.78
2018-08-11T22:32:34.353Z,23.73
2018-08-11T22:35:00.665Z,23.64
2018-08-11T22:37:26.978Z,23.57
2018-08-11T22:39:53.287Z,23.52
2018-08-11T22:42:19.592Z,23.42
2018-08-11T22:44:45.958Z,23.36
2018-08-11T22:47:12.312Z,23.35
2018-08-11T22:49:38.578Z,23.30
2018-08-11T22:52:04.887Z,23.28
2018-08-11T22:54:31.199Z,23.24
2018-08-11T22:56:57.506Z,23.25
2018-08-11T22:59:23.861Z,23.22
2018-08-11T23:01:50.229Z,23.25
2018-08-11T23:04:16.546Z,23.10
2018-08-11T23:06:42.847Z,23.08
2018-08-11T23:09:09.293Z,23.16
2018-08-11T23:11:35.602Z,23.21
2018-08-11T23:14:01.908Z,23.10
2018-08-11T23:16:28.226Z,23.02
2018-08-11T23:18:54.540Z,23.05
2018-08-11T23:21:20.855Z,23.03
2018-08-11T23:23:47.165Z,22.93
2018-08-11T23:26:13.477Z,22.81
2018-08-11T23:28:39.786Z,22.80
2018-08-11T23:31:06.090Z,22.77
2018-08-11T23:33:32.405Z,22.77
2018-08-11T23:35:58.713Z,22.77
2018-08-11T23:38:25.023Z,22.72
2018-08-11T23:40:51.334Z,22.64
2018-08-11T23:43:17.638Z,22.54
2018-08-11T23:45:43.946Z,22.49
2018-08-11T23:48:10.262Z,22.45
2018-08-11T23:50:36.576Z,22.56
2018-08-11T23:53:02.888Z,22.47
2018-08-11T23:55:29.211Z,22.50
2018-08-11T23:57:55.511Z,22.39
